UNEE/KEJ METAR and TAF weather

Enter ICAO airport designator
Station Type Date Time Source
UNEE METAR 2021/03/02 16:00 UTC NOAA

UNEE 021600Z 33001MPS 4200 FU NSC M15/M17 Q1013 R23/851040 NOSIG RMK QFE737


Station Type Date Time Source
UNEE Decoded METAR 2021/03/02 16:00 UTC NOAA

Kemerovo, Russia (UNEE) 55-19-48N 086-04-48E
Mar 02, 2021 - 11:00 AM EST / 2021.03.02 1600 UTC
Wind: from the NNW (330 degrees) at 2 MPH (2 KT):0
Visibility: 2 mile(s):0
Weather: smoke
Temperature: 5 F (-15 C)
Dew Point: 1 F (-17 C)
Relative Humidity: 84%
Pressure (altimeter): 29.91 in. Hg (1013 hPa)
ob: UNEE 021600Z 33001MPS 4200 FU NSC M15/M17 Q1013 R23/851040 NOSIG RMK QFE737
cycle: 16

Station Type Date Time Source
UNEE TAF 2021/03/02 15:24 UTC NOAA

TAF UNEE 021400Z 0215/0315 34003MPS 6000 -SHSN BKN020CB
TEMPO 0220/0303 0300 FZFG FU BKN002 BKN016CB
BECMG 0303/0304 16003G08MPS 8000 -SN

Example: see airport list